createdAt,value
2022-08-17T00:00:51.636Z,1.50
2022-08-17T00:01:53.265Z,2.50
2022-08-17T00:02:56.208Z,2.50
2022-08-17T00:03:59.296Z,2.50
2022-08-17T00:05:03.297Z,2.50
2022-08-17T00:06:06.100Z,1.50
2022-08-17T00:07:08.858Z,1.50
2022-08-17T00:08:11.623Z,2.00
2022-08-17T00:09:18.373Z,1.00
2022-08-17T00:10:18.497Z,1.00
2022-08-17T00:11:21.272Z,1.00
2022-08-17T00:12:41.114Z,1.50
2022-08-17T00:13:27.935Z,0.75
2022-08-17T00:14:30.599Z,0.50
2022-08-17T00:15:33.199Z,0.00
2022-08-17T00:16:56.772Z,1.50
2022-08-17T00:17:40.021Z,1.75
2022-08-17T00:19:02.000Z,1.00
2022-08-17T00:19:46.963Z,1.00
2022-08-17T00:20:49.823Z,0.75
2022-08-17T00:22:29.610Z,1.00
2022-08-17T00:22:56.974Z,1.00
2022-08-17T00:23:59.872Z,1.75
2022-08-17T00:25:02.676Z,1.60
2022-08-17T00:26:05.556Z,2.00
2022-08-17T00:27:08.427Z,2.00
2022-08-17T00:28:11.312Z,1.00
2022-08-17T00:29:19.730Z,1.00
2022-08-17T00:30:18.360Z,1.00
2022-08-17T00:31:21.009Z,2.50
2022-08-17T00:33:13.797Z,2.50
2022-08-17T00:33:28.130Z,1.50
2022-08-17T00:34:30.937Z,1.50
2022-08-17T00:35:34.477Z,1.25
2022-08-17T00:36:37.145Z,0.75
2022-08-17T00:37:40.107Z,1.50
2022-08-17T00:38:42.958Z,2.25
2022-08-17T00:39:45.869Z,1.75
2022-08-17T00:40:48.487Z,1.00
2022-08-17T00:41:51.816Z,1.25
2022-08-17T00:42:54.757Z,1.25
2022-08-17T00:43:57.635Z,1.00
2022-08-17T00:45:00.468Z,1.50
2022-08-17T00:46:03.159Z,1.50
2022-08-17T00:47:05.828Z,1.50
2022-08-17T00:48:11.571Z,1.50
2022-08-17T00:49:12.355Z,1.75
2022-08-17T00:50:15.166Z,1.50
2022-08-17T00:51:17.799Z,1.00
2022-08-17T00:52:20.396Z,2.00
2022-08-17T00:53:23.100Z,2.00
2022-08-17T00:54:25.684Z,1.50
2022-08-17T00:55:28.323Z,0.00
2022-08-17T00:56:30.982Z,0.00
2022-08-17T00:57:33.539Z,1.00
2022-08-17T00:58:36.798Z,1.50
2022-08-17T00:59:39.597Z,1.00
2022-08-17T01:00:42.504Z,1.00
2022-08-17T01:01:45.472Z,1.50
2022-08-17T01:02:48.347Z,1.75
2022-08-17T01:03:51.286Z,1.00
2022-08-17T01:04:54.173Z,1.50
2022-08-17T01:05:56.997Z,1.00
2022-08-17T01:07:00.070Z,1.50
2022-08-17T01:08:02.933Z,1.50
2022-08-17T01:09:08.652Z,2.00
2022-08-17T01:10:58.269Z,2.00
2022-08-17T01:11:18.341Z,2.00
2022-08-17T01:12:20.975Z,2.00
2022-08-17T01:13:23.568Z,1.50
2022-08-17T01:14:26.184Z,1.50
2022-08-17T01:15:28.803Z,1.75
2022-08-17T01:16:31.466Z,2.00
2022-08-17T01:17:34.082Z,1.50
2022-08-17T01:18:36.769Z,0.75
2022-08-17T01:19:39.328Z,1.50
2022-08-17T01:20:43.083Z,0.50
2022-08-17T01:21:45.740Z,0.75
2022-08-17T01:22:48.310Z,1.00
2022-08-17T01:23:51.036Z,1.00
2022-08-17T01:24:53.910Z,1.00
2022-08-17T01:25:56.638Z,1.00
2022-08-17T01:26:59.422Z,0.75
2022-08-17T01:28:02.786Z,1.50
2022-08-17T01:29:05.399Z,0.80
2022-08-17T01:30:56.685Z,1.00
2022-08-17T01:31:12.085Z,0.25
2022-08-17T01:32:14.834Z,0.00
2022-08-17T01:33:17.583Z,0.00
2022-08-17T01:34:20.329Z,0.60
2022-08-17T01:35:22.958Z,0.25
2022-08-17T01:36:25.714Z,0.50
2022-08-17T01:37:28.357Z,1.00
2022-08-17T01:38:30.951Z,1.50
2022-08-17T01:39:33.640Z,1.00
2022-08-17T01:40:36.379Z,0.50
2022-08-17T01:41:38.880Z,0.50
2022-08-17T01:42:41.427Z,1.00
2022-08-17T01:43:44.141Z,1.50
2022-08-17T01:44:46.848Z,0.50
2022-08-17T01:45:49.615Z,0.20
2022-08-17T01:46:53.618Z,0.50
2022-08-17T01:47:57.066Z,0.00
2022-08-17T01:48:59.594Z,0.00
2022-08-17T01:50:02.110Z,0.50
2022-08-17T01:51:04.674Z,1.00
2022-08-17T01:52:07.247Z,1.00
2022-08-17T01:53:09.782Z,0.75
2022-08-17T01:54:12.322Z,1.00
2022-08-17T01:55:14.973Z,1.00
2022-08-17T01:56:17.528Z,0.50
2022-08-17T01:57:20.003Z,0.50
2022-08-17T01:58:22.593Z,0.50
2022-08-17T01:59:25.209Z,0.00
2022-08-17T02:00:27.852Z,0.00
2022-08-17T02:01:31.694Z,1.00
2022-08-17T02:02:34.239Z,1.00
2022-08-17T02:03:36.839Z,0.50
2022-08-17T02:04:39.395Z,0.00
2022-08-17T02:05:41.907Z,0.75
2022-08-17T02:06:53.618Z,1.50
2022-08-17T02:07:59.700Z,1.50
2022-08-17T02:09:01.603Z,2.00
2022-08-17T02:09:56.142Z,1.00
2022-08-17T02:10:58.778Z,0.00
2022-08-17T02:12:37.205Z,1.00
2022-08-17T02:13:06.535Z,1.00
2022-08-17T02:14:09.256Z,1.50
2022-08-17T02:15:11.984Z,0.75
2022-08-17T02:16:14.638Z,0.50
2022-08-17T02:17:17.297Z,0.75
2022-08-17T02:18:19.973Z,0.25
2022-08-17T02:19:22.537Z,0.50
2022-08-17T02:20:41.529Z,2.50
2022-08-17T02:21:28.856Z,3.50
2022-08-17T02:22:31.622Z,1.50
2022-08-17T02:23:34.213Z,0.50
2022-08-17T02:25:00.815Z,1.50
2022-08-17T02:25:40.554Z,1.50
2022-08-17T02:26:43.328Z,0.75
2022-08-17T02:27:46.352Z,1.00
2022-08-17T02:28:49.161Z,1.25
2022-08-17T02:29:51.980Z,1.00
2022-08-17T02:31:01.383Z,1.00
2022-08-17T02:31:58.656Z,1.00
2022-08-17T02:33:04.274Z,1.00
2022-08-17T02:34:05.633Z,1.00
2022-08-17T02:35:08.460Z,1.00
2022-08-17T02:36:11.273Z,1.00
2022-08-17T02:37:14.190Z,1.00
2022-08-17T02:38:17.233Z,1.00
2022-08-17T02:39:19.853Z,1.00
2022-08-17T02:40:32.806Z,0.50
2022-08-17T02:41:26.441Z,1.50
2022-08-17T02:42:29.000Z,0.50
2022-08-17T02:43:31.665Z,1.00
2022-08-17T02:44:38.933Z,1.00
2022-08-17T02:45:38.175Z,1.00
2022-08-17T02:46:40.815Z,1.50
2022-08-17T02:47:43.509Z,1.00
2022-08-17T02:48:46.174Z,1.00
2022-08-17T02:49:55.593Z,0.50
2022-08-17T02:50:52.719Z,1.00
2022-08-17T02:51:55.502Z,0.50
2022-08-17T02:53:02.356Z,1.00
2022-08-17T02:54:35.641Z,1.50
2022-08-17T02:55:05.977Z,0.50
2022-08-17T02:56:08.692Z,1.00
2022-08-17T02:57:11.436Z,1.50
2022-08-17T02:58:14.278Z,1.00
2022-08-17T02:59:17.145Z,1.00
2022-08-17T03:00:19.947Z,1.50
2022-08-17T03:01:22.534Z,2.00
2022-08-17T03:02:25.432Z,1.00
2022-08-17T03:03:27.996Z,1.25
2022-08-17T03:04:30.652Z,1.00
2022-08-17T03:05:34.545Z,1.00
2022-08-17T03:06:37.231Z,1.50
2022-08-17T03:07:39.931Z,1.50
2022-08-17T03:08:42.782Z,1.00
2022-08-17T03:09:45.748Z,1.50
2022-08-17T03:10:48.629Z,0.50
2022-08-17T03:11:51.465Z,1.00
2022-08-17T03:12:55.557Z,1.50
2022-08-17T03:13:58.385Z,1.50
2022-08-17T03:15:01.301Z,1.25
2022-08-17T03:16:04.134Z,1.00
2022-08-17T03:17:06.977Z,1.00
2022-08-17T03:18:11.540Z,1.00
2022-08-17T03:19:13.926Z,1.00
2022-08-17T03:20:16.810Z,1.00
2022-08-17T03:21:19.455Z,1.00
2022-08-17T03:22:36.932Z,1.00
2022-08-17T03:23:26.090Z,1.50
2022-08-17T03:24:30.215Z,1.00
2022-08-17T03:25:33.074Z,1.50
2022-08-17T03:26:36.926Z,1.00
2022-08-17T03:27:39.535Z,1.00
2022-08-17T03:28:46.087Z,1.00
2022-08-17T03:29:48.755Z,1.25
2022-08-17T03:30:51.612Z,1.00
2022-08-17T03:31:54.489Z,0.00
2022-08-17T03:32:57.286Z,1.00
2022-08-17T03:34:00.130Z,1.00
2022-08-17T03:35:02.832Z,1.50
2022-08-17T03:36:05.636Z,1.00
2022-08-17T03:37:08.337Z,0.75
2022-08-17T03:38:11.079Z,1.00
2022-08-17T03:39:13.805Z,1.75
2022-08-17T03:40:16.521Z,1.00
2022-08-17T03:41:20.431Z,0.50
2022-08-17T03:42:31.288Z,1.25
2022-08-17T03:43:26.956Z,1.00
2022-08-17T03:44:29.722Z,0.75
2022-08-17T03:45:32.213Z,1.00
2022-08-17T03:46:36.095Z,0.00
2022-08-17T03:47:38.606Z,1.00
2022-08-17T03:48:42.699Z,1.50
2022-08-17T03:49:45.470Z,1.50
2022-08-17T03:50:48.199Z,0.75
2022-08-17T03:51:51.627Z,0.00
2022-08-17T03:52:54.245Z,1.00
2022-08-17T03:53:56.825Z,1.50
2022-08-17T03:54:59.337Z,1.50
2022-08-17T03:56:01.828Z,0.50
2022-08-17T03:57:04.392Z,0.75
2022-08-17T03:58:06.942Z,0.75
2022-08-17T03:59:09.563Z,1.00
2022-08-17T04:00:13.359Z,1.00
2022-08-17T04:01:16.136Z,1.00
2022-08-17T04:02:19.020Z,0.50
2022-08-17T04:03:21.502Z,1.50
2022-08-17T04:04:27.803Z,1.50
2022-08-17T04:05:28.038Z,1.50
2022-08-17T04:06:30.772Z,1.00
2022-08-17T04:07:33.347Z,1.00
2022-08-17T04:08:35.837Z,1.00
2022-08-17T04:09:38.347Z,1.00
2022-08-17T04:10:44.966Z,1.50
2022-08-17T04:11:45.094Z,1.50
2022-08-17T04:12:48.169Z,0.75
2022-08-17T04:13:51.063Z,2.00
2022-08-17T04:14:54.916Z,2.00
2022-08-17T04:15:57.847Z,1.50
2022-08-17T04:17:00.543Z,1.00
2022-08-17T04:18:03.321Z,1.50
2022-08-17T04:19:06.009Z,1.75
2022-08-17T04:20:08.727Z,2.00
2022-08-17T04:21:11.305Z,1.50
2022-08-17T04:22:32.897Z,1.00
2022-08-17T04:23:17.865Z,1.50
2022-08-17T04:24:20.698Z,1.25
2022-08-17T04:25:23.261Z,1.00
2022-08-17T04:26:52.500Z,1.00
2022-08-17T04:27:29.731Z,0.50
2022-08-17T04:28:32.448Z,1.50
2022-08-17T04:29:55.055Z,1.00
2022-08-17T04:30:38.881Z,0.75
2022-08-17T04:31:41.448Z,2.00
2022-08-17T04:33:19.132Z,0.50
2022-08-17T04:33:48.506Z,0.75
2022-08-17T04:34:51.278Z,0.75
2022-08-17T04:35:54.010Z,1.00
2022-08-17T04:36:56.632Z,0.50
2022-08-17T04:37:59.467Z,1.00
2022-08-17T04:39:02.352Z,0.50
2022-08-17T04:40:05.116Z,0.00
2022-08-17T04:41:07.916Z,1.00
2022-08-17T04:42:10.688Z,0.40
2022-08-17T04:43:13.217Z,0.50
2022-08-17T04:44:15.866Z,0.50
2022-08-17T04:45:19.885Z,0.00
2022-08-17T04:46:23.713Z,0.50
2022-08-17T04:47:26.261Z,0.75
2022-08-17T04:48:35.662Z,0.25
2022-08-17T04:49:32.717Z,0.50
2022-08-17T04:50:35.444Z,1.00
2022-08-17T04:51:38.147Z,1.00
2022-08-17T04:52:53.322Z,1.25
2022-08-17T04:53:44.711Z,1.50
2022-08-17T04:54:47.425Z,0.40
2022-08-17T04:55:50.126Z,0.50
2022-08-17T04:56:52.730Z,0.75
2022-08-17T04:57:55.403Z,1.00
2022-08-17T04:58:57.965Z,0.50
2022-08-17T05:00:00.494Z,1.00
2022-08-17T05:01:03.034Z,1.00
2022-08-17T05:02:05.650Z,1.25
2022-08-17T05:03:08.276Z,1.50
2022-08-17T05:04:33.273Z,0.50
2022-08-17T05:05:14.857Z,0.00
2022-08-17T05:06:17.466Z,0.50
2022-08-17T05:07:23.434Z,0.50
2022-08-17T05:08:23.932Z,0.00
2022-08-17T05:09:26.487Z,0.50
2022-08-17T05:10:29.096Z,0.00
2022-08-17T05:11:31.664Z,1.00
2022-08-17T05:12:34.173Z,1.00
2022-08-17T05:13:36.727Z,0.50
2022-08-17T05:14:39.258Z,0.50
2022-08-17T05:15:45.108Z,1.00
2022-08-17T05:16:45.866Z,1.50
2022-08-17T05:17:48.679Z,2.00
2022-08-17T05:18:51.433Z,1.50
2022-08-17T05:19:54.267Z,1.00
2022-08-17T05:20:57.205Z,1.00
2022-08-17T05:22:00.095Z,0.75
2022-08-17T05:23:02.944Z,1.00
2022-08-17T05:24:06.090Z,1.00
2022-08-17T05:25:09.825Z,1.00
2022-08-17T05:26:19.905Z,1.00
2022-08-17T05:27:18.859Z,0.50
2022-08-17T05:28:24.026Z,0.50
2022-08-17T05:29:33.674Z,1.00
2022-08-17T05:30:28.995Z,1.00
2022-08-17T05:31:31.632Z,1.00
2022-08-17T05:32:39.007Z,0.50
2022-08-17T05:33:41.449Z,0.00
2022-08-17T05:34:41.957Z,0.50
2022-08-17T05:35:44.841Z,1.00
2022-08-17T05:36:47.587Z,0.50
2022-08-17T05:37:50.541Z,0.50
2022-08-17T05:38:53.491Z,1.50
2022-08-17T05:39:56.323Z,1.00
2022-08-17T05:40:59.295Z,1.00
2022-08-17T05:42:02.168Z,1.00
2022-08-17T05:43:04.799Z,1.00
2022-08-17T05:44:07.463Z,1.00
2022-08-17T05:45:10.121Z,1.50
2022-08-17T05:46:12.764Z,1.00
2022-08-17T05:47:15.512Z,0.50
2022-08-17T05:48:18.247Z,1.50
2022-08-17T05:49:20.812Z,1.50
2022-08-17T05:50:27.050Z,1.75
2022-08-17T05:51:27.275Z,1.50
2022-08-17T05:52:30.188Z,1.00
2022-08-17T05:53:32.710Z,1.50
2022-08-17T05:54:36.599Z,2.00
2022-08-17T05:55:39.245Z,1.50
2022-08-17T05:56:41.952Z,1.00
2022-08-17T05:57:53.380Z,1.50
2022-08-17T05:58:49.041Z,1.00
2022-08-17T05:59:51.847Z,0.50
2022-08-17T06:00:54.756Z,1.00
2022-08-17T06:01:57.722Z,1.50
2022-08-17T06:03:00.744Z,1.50
2022-08-17T06:04:03.649Z,0.50
2022-08-17T06:05:06.524Z,1.25
2022-08-17T06:06:09.370Z,1.00
2022-08-17T06:07:12.323Z,1.50
2022-08-17T06:08:15.279Z,1.50
2022-08-17T06:09:22.858Z,2.00
2022-08-17T06:10:22.271Z,2.00
2022-08-17T06:11:24.816Z,1.25
2022-08-17T06:12:27.740Z,1.00
2022-08-17T06:13:30.531Z,1.00
2022-08-17T06:14:33.437Z,1.00
2022-08-17T06:15:36.215Z,1.00
2022-08-17T06:16:38.919Z,1.25
2022-08-17T06:17:41.565Z,1.50
2022-08-17T06:18:44.550Z,1.00
2022-08-17T06:19:47.437Z,1.25
2022-08-17T06:20:50.304Z,1.50
2022-08-17T06:21:53.407Z,1.75
2022-08-17T06:22:56.278Z,2.50
2022-08-17T06:23:59.115Z,2.50
2022-08-17T06:25:02.005Z,1.50
2022-08-17T06:26:04.886Z,1.50
2022-08-17T06:27:07.786Z,1.00
2022-08-17T06:28:13.948Z,0.50
2022-08-17T06:29:18.815Z,1.50
2022-08-17T06:30:19.039Z,1.50
2022-08-17T06:31:21.834Z,1.00
2022-08-17T06:32:24.795Z,1.00
2022-08-17T06:33:27.382Z,2.00
2022-08-17T06:34:30.318Z,2.00
2022-08-17T06:35:34.065Z,1.00
2022-08-17T06:36:36.841Z,1.00
2022-08-17T06:37:39.497Z,1.00
2022-08-17T06:38:42.182Z,1.50
2022-08-17T06:39:44.936Z,2.00
2022-08-17T06:40:47.620Z,2.00
2022-08-17T06:41:50.318Z,2.00
2022-08-17T06:42:59.995Z,2.00
2022-08-17T06:43:56.840Z,2.00
2022-08-17T06:44:59.563Z,2.50
2022-08-17T06:46:02.242Z,2.50
2022-08-17T06:47:06.131Z,1.50
2022-08-17T06:48:08.769Z,1.50
2022-08-17T06:49:11.400Z,1.50
2022-08-17T06:50:14.560Z,0.50
2022-08-17T06:51:17.277Z,0.50
2022-08-17T06:52:45.250Z,1.00
2022-08-17T06:53:23.917Z,1.50
2022-08-17T06:54:26.492Z,2.00
2022-08-17T06:55:31.200Z,2.00
2022-08-17T06:56:54.338Z,1.50
2022-08-17T06:57:37.378Z,1.50
2022-08-17T06:58:40.237Z,1.50
2022-08-17T06:59:55.305Z,1.00
2022-08-17T07:00:47.433Z,1.00
2022-08-17T07:01:50.452Z,2.75
2022-08-17T07:02:53.535Z,4.00
2022-08-17T07:03:56.513Z,2.50
2022-08-17T07:04:59.363Z,2.25
2022-08-17T07:06:02.131Z,2.00
2022-08-17T07:07:04.765Z,1.75
2022-08-17T07:08:07.596Z,1.25
2022-08-17T07:09:10.405Z,0.50
2022-08-17T07:10:13.330Z,1.50
2022-08-17T07:11:16.217Z,2.00
2022-08-17T07:12:19.104Z,2.00
2022-08-17T07:13:21.950Z,2.00
2022-08-17T07:14:24.777Z,2.00
2022-08-17T07:15:27.359Z,1.50
2022-08-17T07:16:30.250Z,2.00
2022-08-17T07:17:46.654Z,1.50
2022-08-17T07:18:36.748Z,2.25
2022-08-17T07:19:40.627Z,2.25
2022-08-17T07:20:43.282Z,2.50
2022-08-17T07:21:46.198Z,2.00
2022-08-17T07:22:50.598Z,2.00
2022-08-17T07:23:52.978Z,2.00
2022-08-17T07:24:55.861Z,1.50
2022-08-17T07:25:58.781Z,2.50
2022-08-17T07:27:01.762Z,3.50
2022-08-17T07:28:07.109Z,4.00
2022-08-17T07:29:08.658Z,3.00
2022-08-17T07:30:12.842Z,3.50
2022-08-17T07:31:15.647Z,3.00
2022-08-17T07:32:18.643Z,3.50
2022-08-17T07:33:21.488Z,3.50
2022-08-17T07:34:24.361Z,2.50
2022-08-17T07:35:41.467Z,2.50
2022-08-17T07:36:32.232Z,2.00
2022-08-17T07:37:34.914Z,2.00
2022-08-17T07:38:37.627Z,2.50
2022-08-17T07:40:13.165Z,2.50
2022-08-17T07:40:44.148Z,2.50
2022-08-17T07:41:53.519Z,2.50
2022-08-17T07:42:50.702Z,2.50
2022-08-17T07:43:53.350Z,3.00
2022-08-17T07:44:56.025Z,2.00
2022-08-17T07:45:58.633Z,1.50
2022-08-17T07:47:01.141Z,1.00
2022-08-17T07:48:03.779Z,0.50
2022-08-17T07:49:07.673Z,1.00
2022-08-17T07:50:10.406Z,1.50
2022-08-17T07:51:13.090Z,1.00
2022-08-17T07:52:48.145Z,1.50
2022-08-17T07:53:19.654Z,1.00
2022-08-17T07:54:22.331Z,1.50
2022-08-17T07:55:24.977Z,1.00
2022-08-17T07:56:27.573Z,1.50
2022-08-17T07:57:31.329Z,1.50
2022-08-17T07:58:34.042Z,1.00
2022-08-17T07:59:36.547Z,1.50
2022-08-17T08:00:39.060Z,1.00
2022-08-17T08:01:42.560Z,1.00
2022-08-17T08:02:45.735Z,1.00
2022-08-17T08:03:50.480Z,1.00
2022-08-17T08:05:01.425Z,1.25
2022-08-17T08:05:57.131Z,1.50
2022-08-17T08:07:00.017Z,1.75
2022-08-17T08:08:02.771Z,2.00
2022-08-17T08:09:05.712Z,2.00
2022-08-17T08:10:08.616Z,2.50
2022-08-17T08:11:11.513Z,3.00
2022-08-17T08:12:16.012Z,2.00
2022-08-17T08:13:18.430Z,2.50
2022-08-17T08:14:21.412Z,3.00
2022-08-17T08:15:25.240Z,4.50
2022-08-17T08:16:28.008Z,3.75
2022-08-17T08:17:30.587Z,3.50
2022-08-17T08:18:38.725Z,3.00
2022-08-17T08:19:37.289Z,3.00
2022-08-17T08:20:52.037Z,3.50
2022-08-17T08:21:43.821Z,3.00
2022-08-17T08:22:46.467Z,3.50
2022-08-17T08:23:49.299Z,3.75
2022-08-17T08:24:52.251Z,3.50
2022-08-17T08:25:55.095Z,2.50
2022-08-17T08:26:59.217Z,2.00
2022-08-17T08:28:03.259Z,2.50
2022-08-17T08:29:06.672Z,3.25
2022-08-17T08:30:09.419Z,2.50
2022-08-17T08:31:12.059Z,2.00
2022-08-17T08:32:14.724Z,1.80
2022-08-17T08:33:17.414Z,1.50
2022-08-17T08:34:58.679Z,2.00
2022-08-17T08:35:23.890Z,1.50
2022-08-17T08:37:12.856Z,1.50
2022-08-17T08:37:34.728Z,1.50
2022-08-17T08:38:34.190Z,1.50
2022-08-17T08:39:36.755Z,2.00
2022-08-17T08:40:39.391Z,2.50
2022-08-17T08:41:42.157Z,3.00
2022-08-17T08:42:44.898Z,3.50
2022-08-17T08:43:52.639Z,3.50
2022-08-17T08:45:00.414Z,2.50
2022-08-17T08:45:56.066Z,2.50
2022-08-17T08:46:58.907Z,2.00
2022-08-17T08:48:05.318Z,2.00
2022-08-17T08:49:12.074Z,2.00
2022-08-17T08:50:09.455Z,2.50
2022-08-17T08:51:13.607Z,2.00
2022-08-17T08:52:17.055Z,2.50
2022-08-17T08:53:19.878Z,4.25
2022-08-17T08:54:27.012Z,5.00
2022-08-17T08:55:26.560Z,3.50
2022-08-17T08:56:29.396Z,2.25
2022-08-17T08:57:34.459Z,3.00
2022-08-17T08:58:41.963Z,3.00
2022-08-17T08:59:42.154Z,3.00
2022-08-17T09:00:43.620Z,3.00
2022-08-17T09:01:46.540Z,2.00
2022-08-17T09:02:49.379Z,3.00
2022-08-17T09:03:53.441Z,3.00
2022-08-17T09:05:13.935Z,2.50
2022-08-17T09:05:59.757Z,2.50
2022-08-17T09:07:02.603Z,3.00
2022-08-17T09:08:05.319Z,2.00
2022-08-17T09:09:07.941Z,1.75
2022-08-17T09:10:11.901Z,2.00
2022-08-17T09:11:14.477Z,2.00
2022-08-17T09:12:17.198Z,2.00
2022-08-17T09:13:19.836Z,2.25
2022-08-17T09:14:28.832Z,3.00
2022-08-17T09:15:26.291Z,3.00
2022-08-17T09:16:28.990Z,2.50
2022-08-17T09:17:31.723Z,5.40
2022-08-17T09:19:02.699Z,18.00
2022-08-17T09:19:38.256Z,24.00
2022-08-17T09:20:40.980Z,11.50
2022-08-17T09:21:48.801Z,6.50
2022-08-17T09:22:47.576Z,4.50
2022-08-17T09:23:50.240Z,4.00
2022-08-17T09:24:52.914Z,4.00
2022-08-17T09:25:55.572Z,4.00
2022-08-17T09:26:58.227Z,4.00
2022-08-17T09:28:00.988Z,3.50
2022-08-17T09:29:03.671Z,2.75
2022-08-17T09:30:06.436Z,3.20
2022-08-17T09:31:09.108Z,3.00
2022-08-17T09:32:11.695Z,3.00
2022-08-17T09:33:14.270Z,3.00
2022-08-17T09:34:16.804Z,3.25
2022-08-17T09:35:19.402Z,3.50
2022-08-17T09:36:21.994Z,3.50
2022-08-17T09:37:24.742Z,3.50
2022-08-17T09:38:31.864Z,4.00
2022-08-17T09:39:31.404Z,3.75
2022-08-17T09:40:34.254Z,5.00
2022-08-17T09:41:36.892Z,5.00
2022-08-17T09:42:39.416Z,6.00
2022-08-17T09:43:42.004Z,4.50
2022-08-17T09:44:44.645Z,3.50
2022-08-17T09:45:47.158Z,4.00
2022-08-17T09:46:49.667Z,4.50
2022-08-17T09:47:52.501Z,4.00
2022-08-17T09:48:55.371Z,4.00
2022-08-17T09:49:58.034Z,5.50
2022-08-17T09:51:04.739Z,6.00
2022-08-17T09:52:04.571Z,5.50
2022-08-17T09:53:07.249Z,4.00
2022-08-17T09:54:37.704Z,3.25
2022-08-17T09:55:13.797Z,3.75
2022-08-17T09:56:16.493Z,4.25
2022-08-17T09:57:29.899Z,4.00
2022-08-17T09:58:23.510Z,4.00
2022-08-17T09:59:26.805Z,3.00
2022-08-17T10:00:30.614Z,3.50
2022-08-17T10:01:33.119Z,3.25
2022-08-17T10:02:35.926Z,4.00
2022-08-17T10:03:38.483Z,6.50
2022-08-17T10:04:41.110Z,7.50
2022-08-17T10:05:43.746Z,8.00
2022-08-17T10:06:46.429Z,8.50
2022-08-17T10:07:49.182Z,9.50
2022-08-17T10:08:51.897Z,8.75
2022-08-17T10:09:54.567Z,6.75
2022-08-17T10:10:57.256Z,7.50
2022-08-17T10:11:59.878Z,7.00
2022-08-17T10:13:02.458Z,5.75
2022-08-17T10:14:07.900Z,5.00
2022-08-17T10:15:10.655Z,5.25
2022-08-17T10:16:13.669Z,4.50
2022-08-17T10:17:16.515Z,5.50
2022-08-17T10:18:19.327Z,6.00
2022-08-17T10:19:22.144Z,5.00
2022-08-17T10:20:25.228Z,4.00
2022-08-17T10:21:27.838Z,5.00
2022-08-17T10:22:34.850Z,5.00
2022-08-17T10:23:34.116Z,5.00
2022-08-17T10:24:36.981Z,4.75
2022-08-17T10:25:54.127Z,4.50
2022-08-17T10:26:56.925Z,4.50
2022-08-17T10:27:47.522Z,4.50
2022-08-17T10:28:50.313Z,4.50
2022-08-17T10:29:52.949Z,4.25
2022-08-17T10:31:16.686Z,4.00
2022-08-17T10:31:59.968Z,4.50
2022-08-17T10:33:02.874Z,4.40
2022-08-17T10:34:05.781Z,5.00
2022-08-17T10:35:08.691Z,5.00
2022-08-17T10:36:11.591Z,4.50
2022-08-17T10:37:14.491Z,4.50
2022-08-17T10:38:17.328Z,5.00
2022-08-17T10:39:21.358Z,7.00
2022-08-17T10:40:24.342Z,9.00
2022-08-17T10:41:28.121Z,8.50
2022-08-17T10:42:32.763Z,9.00
2022-08-17T10:43:34.874Z,10.00
2022-08-17T10:44:41.072Z,9.00
2022-08-17T10:45:41.974Z,6.50
2022-08-17T10:46:44.650Z,6.00
2022-08-17T10:47:55.177Z,6.50
2022-08-17T10:48:51.434Z,7.00
2022-08-17T10:49:54.492Z,8.25
2022-08-17T10:50:57.230Z,9.50
2022-08-17T10:52:00.176Z,9.50
2022-08-17T10:53:03.011Z,9.00
2022-08-17T10:54:05.862Z,8.00
2022-08-17T10:55:08.537Z,8.50
2022-08-17T10:56:11.180Z,8.00
2022-08-17T10:57:13.818Z,6.50
2022-08-17T10:58:16.518Z,6.00
2022-08-17T10:59:19.141Z,9.00
2022-08-17T11:00:26.977Z,9.00
2022-08-17T11:01:25.593Z,8.00
2022-08-17T11:02:28.222Z,8.00
2022-08-17T11:03:30.808Z,8.50
2022-08-17T11:04:33.308Z,7.50
2022-08-17T11:05:37.975Z,6.67
2022-08-17T11:06:39.734Z,6.00
2022-08-17T11:07:42.449Z,6.00
2022-08-17T11:08:45.074Z,6.50
2022-08-17T11:09:47.698Z,6.00
2022-08-17T11:10:52.253Z,7.00
2022-08-17T11:11:54.668Z,6.50
2022-08-17T11:12:57.593Z,7.00
2022-08-17T11:14:00.402Z,9.00
2022-08-17T11:15:03.222Z,9.00
2022-08-17T11:16:08.522Z,7.25
2022-08-17T11:17:10.704Z,5.00
2022-08-17T11:18:14.721Z,5.00
2022-08-17T11:19:17.612Z,6.50
2022-08-17T11:20:20.520Z,6.80
2022-08-17T11:21:23.478Z,8.50
2022-08-17T11:22:28.784Z,9.50
2022-08-17T11:23:30.262Z,8.75
2022-08-17T11:24:33.083Z,10.75
2022-08-17T11:25:35.653Z,11.75
2022-08-17T11:26:38.449Z,18.50
2022-08-17T11:27:41.065Z,22.50
2022-08-17T11:28:43.684Z,14.50
2022-08-17T11:29:49.448Z,10.50
2022-08-17T11:30:50.479Z,10.50
2022-08-17T11:32:01.420Z,10.00
2022-08-17T11:33:05.447Z,11.00
2022-08-17T11:34:10.056Z,8.50
2022-08-17T11:35:13.646Z,8.50
2022-08-17T11:36:17.034Z,8.00
2022-08-17T11:37:20.318Z,8.00
2022-08-17T11:38:23.405Z,8.00
2022-08-17T11:39:27.538Z,8.25
2022-08-17T11:40:30.776Z,10.00
2022-08-17T11:41:33.968Z,9.00
2022-08-17T11:42:37.047Z,8.00
2022-08-17T11:43:42.868Z,9.00
2022-08-17T11:44:44.741Z,9.25
2022-08-17T11:45:48.127Z,10.25
2022-08-17T11:46:51.957Z,9.00
2022-08-17T11:48:23.859Z,9.50
2022-08-17T11:49:00.232Z,9.00
2022-08-17T11:50:03.619Z,9.50
2022-08-17T11:51:06.805Z,8.00
2022-08-17T11:52:10.120Z,9.25
2022-08-17T11:53:14.804Z,11.00
2022-08-17T11:54:34.309Z,12.50
2022-08-17T11:55:35.025Z,13.50
2022-08-17T11:56:26.711Z,12.00
2022-08-17T11:57:29.891Z,11.50
2022-08-17T11:58:33.170Z,9.50
2022-08-17T11:59:36.313Z,9.00
2022-08-17T12:00:39.538Z,10.00
2022-08-17T12:01:42.718Z,13.50
2022-08-17T12:02:48.259Z,12.00
2022-08-17T12:03:54.472Z,11.00
2022-08-17T12:04:54.829Z,12.00
2022-08-17T12:05:58.105Z,12.00
2022-08-17T12:07:01.500Z,11.50
2022-08-17T12:08:04.803Z,11.50
2022-08-17T12:09:08.261Z,11.00
2022-08-17T12:10:11.462Z,11.40
2022-08-17T12:11:14.741Z,13.00
2022-08-17T12:12:18.027Z,14.75
2022-08-17T12:13:21.301Z,13.25
2022-08-17T12:14:35.696Z,11.50
2022-08-17T12:15:28.998Z,10.25
2022-08-17T12:16:32.710Z,10.00
2022-08-17T12:17:40.577Z,9.00
2022-08-17T12:18:40.414Z,9.50
2022-08-17T12:19:43.983Z,8.25
2022-08-17T12:20:47.258Z,9.00
2022-08-17T12:21:50.561Z,10.50
2022-08-17T12:22:53.827Z,8.25
2022-08-17T12:23:57.110Z,8.00
2022-08-17T12:25:00.393Z,8.00
2022-08-17T12:26:03.678Z,8.75
2022-08-17T12:27:07.167Z,7.75
2022-08-17T12:28:10.890Z,8.50
2022-08-17T12:29:18.497Z,9.00
2022-08-17T12:30:18.646Z,8.50
2022-08-17T12:31:21.841Z,8.50
2022-08-17T12:32:25.325Z,8.50
2022-08-17T12:33:29.075Z,10.00
2022-08-17T12:34:32.510Z,9.50
2022-08-17T12:35:35.698Z,9.00
2022-08-17T12:36:39.287Z,10.00
2022-08-17T12:37:42.633Z,9.00
2022-08-17T12:38:45.855Z,8.00
2022-08-17T12:39:49.163Z,9.00
2022-08-17T12:40:52.401Z,8.50
2022-08-17T12:41:58.598Z,7.50
2022-08-17T12:43:00.425Z,7.75
2022-08-17T12:44:03.810Z,9.00
2022-08-17T12:45:07.219Z,9.50
2022-08-17T12:46:15.128Z,8.75
2022-08-17T12:47:21.113Z,8.50
2022-08-17T12:48:20.111Z,8.00
2022-08-17T12:49:23.508Z,9.00
2022-08-17T12:50:29.603Z,9.50
2022-08-17T12:51:31.407Z,9.00
2022-08-17T12:52:34.793Z,8.00
2022-08-17T12:53:37.932Z,10.00
2022-08-17T12:54:40.970Z,10.80
2022-08-17T12:55:44.135Z,9.50
2022-08-17T12:56:47.663Z,8.75
2022-08-17T12:57:51.261Z,8.75
2022-08-17T12:58:54.911Z,7.75
2022-08-17T12:59:58.397Z,7.00
2022-08-17T13:01:01.989Z,7.50
2022-08-17T13:02:05.514Z,8.50
2022-08-17T13:03:08.966Z,9.00
2022-08-17T13:04:13.482Z,8.50
2022-08-17T13:05:16.846Z,11.50
2022-08-17T13:06:20.153Z,12.00
2022-08-17T13:07:23.518Z,11.50
2022-08-17T13:08:26.821Z,11.50
2022-08-17T13:09:35.567Z,9.50
2022-08-17T13:10:34.510Z,9.00
2022-08-17T13:11:37.552Z,8.50
2022-08-17T13:12:40.782Z,8.00
2022-08-17T13:13:44.063Z,9.00
2022-08-17T13:14:47.347Z,10.00
2022-08-17T13:15:53.703Z,9.50
2022-08-17T13:16:57.188Z,8.50
2022-08-17T13:18:00.886Z,8.50
2022-08-17T13:19:04.268Z,7.00
2022-08-17T13:20:07.659Z,6.25
2022-08-17T13:21:11.148Z,8.20
2022-08-17T13:22:14.760Z,8.00
2022-08-17T13:23:18.130Z,7.25
2022-08-17T13:24:22.846Z,7.25
2022-08-17T13:25:26.196Z,7.00
2022-08-17T13:26:29.311Z,7.50
2022-08-17T13:27:32.351Z,6.00
2022-08-17T13:28:36.487Z,7.50
2022-08-17T13:29:39.879Z,7.50
2022-08-17T13:30:42.923Z,9.00
2022-08-17T13:31:52.697Z,9.00
2022-08-17T13:32:50.347Z,8.00
2022-08-17T13:33:53.630Z,8.00
2022-08-17T13:35:13.175Z,8.00
2022-08-17T13:36:02.684Z,9.00
2022-08-17T13:37:07.128Z,9.00
2022-08-17T13:38:10.664Z,8.50
2022-08-17T13:39:14.146Z,9.50
2022-08-17T13:40:17.494Z,9.00
2022-08-17T13:41:20.817Z,10.50
2022-08-17T13:42:25.317Z,10.00
2022-08-17T13:43:28.465Z,12.50
2022-08-17T13:44:31.797Z,13.25
2022-08-17T13:45:36.754Z,13.25
2022-08-17T13:46:39.494Z,13.00
2022-08-17T13:47:42.779Z,13.50
2022-08-17T13:48:46.167Z,12.50
2022-08-17T13:49:49.609Z,13.00
2022-08-17T13:50:52.839Z,12.00
2022-08-17T13:51:56.323Z,12.00
2022-08-17T13:53:00.620Z,11.00
2022-08-17T13:54:03.821Z,12.75
2022-08-17T13:55:06.998Z,14.75
2022-08-17T13:56:37.746Z,16.00
2022-08-17T13:57:14.456Z,15.00
2022-08-17T13:58:17.567Z,12.00